sensor_id;sensor_type;location;lat;lon;timestamp;pressure;altitude;pressure_sealevel;temperature;humidity
63088;BME280;49173;43.164;27.786;2023-04-26T00:01:24;99507.63;;;13.04;89.96
63088;BME280;49173;43.164;27.786;2023-04-26T00:03:52;99510.41;;;13.02;90.06
63088;BME280;49173;43.164;27.786;2023-04-26T00:06:18;99507.25;;;12.97;90.11
63088;BME280;49173;43.164;27.786;2023-04-26T00:08:44;99511.16;;;12.93;89.84
63088;BME280;49173;43.164;27.786;2023-04-26T00:11:10;99520.44;;;12.89;89.50
63088;BME280;49173;43.164;27.786;2023-04-26T00:13:35;99515.28;;;12.86;88.95
63088;BME280;49173;43.164;27.786;2023-04-26T00:16:03;99520.03;;;12.82;88.98
63088;BME280;49173;43.164;27.786;2023-04-26T00:18:29;99517.84;;;12.76;89.25
63088;BME280;49173;43.164;27.786;2023-04-26T00:20:56;99512.69;;;12.73;89.66
63088;BME280;49173;43.164;27.786;2023-04-26T00:23:22;99518.44;;;12.69;89.38
63088;BME280;49173;43.164;27.786;2023-04-26T00:25:48;99515.97;;;12.65;89.73
63088;BME280;49173;43.164;27.786;2023-04-26T00:28:13;99513.41;;;12.64;89.33
63088;BME280;49173;43.164;27.786;2023-04-26T00:30:39;99520.75;;;12.62;89.61
63088;BME280;49173;43.164;27.786;2023-04-26T00:33:12;99518.16;;;12.60;89.65
63088;BME280;49173;43.164;27.786;2023-04-26T00:35:37;99513.03;;;12.57;90.14
63088;BME280;49173;43.164;27.786;2023-04-26T00:38:03;99510.47;;;12.56;90.14
63088;BME280;49173;43.164;27.786;2023-04-26T00:40:29;99508.75;;;12.55;90.28
63088;BME280;49173;43.164;27.786;2023-04-26T00:42:57;99513.50;;;12.51;90.32
63088;BME280;49173;43.164;27.786;2023-04-26T00:45:23;99508.22;;;12.50;90.60
63088;BME280;49173;43.164;27.786;2023-04-26T00:47:49;99507.50;;;12.48;90.63
63088;BME280;49173;43.164;27.786;2023-04-26T00:50:15;99519.13;;;12.48;90.68
63088;BME280;49173;43.164;27.786;2023-04-26T00:52:42;99511.38;;;12.44;90.78
63088;BME280;49173;43.164;27.786;2023-04-26T00:55:09;99499.97;;;12.40;90.41
63088;BME280;49173;43.164;27.786;2023-04-26T00:57:35;99499.25;;;12.38;90.18
63088;BME280;49173;43.164;27.786;2023-04-26T01:00:01;99503.78;;;12.37;90.26
63088;BME280;49173;43.164;27.786;2023-04-26T01:02:27;99504.41;;;12.41;90.70
63088;BME280;49173;43.164;27.786;2023-04-26T01:04:53;99502.59;;;12.42;90.86
63088;BME280;49173;43.164;27.786;2023-04-26T01:07:19;99507.09;;;12.41;90.98
63088;BME280;49173;43.164;27.786;2023-04-26T01:09:46;99502.19;;;12.35;91.10
63088;BME280;49173;43.164;27.786;2023-04-26T01:12:13;99500.47;;;12.34;91.17
63088;BME280;49173;43.164;27.786;2023-04-26T01:14:39;99506.72;;;12.34;91.06
63088;BME280;49173;43.164;27.786;2023-04-26T01:17:05;99499.38;;;12.36;90.96
63088;BME280;49173;43.164;27.786;2023-04-26T01:19:32;99505.00;;;12.33;91.11
63088;BME280;49173;43.164;27.786;2023-04-26T01:21:57;99498.13;;;12.29;90.56
63088;BME280;49173;43.164;27.786;2023-04-26T01:24:23;99493.72;;;12.28;90.35
63088;BME280;49173;43.164;27.786;2023-04-26T01:26:49;99493.00;;;12.26;90.46
63088;BME280;49173;43.164;27.786;2023-04-26T01:29:20;99497.59;;;12.24;90.54
63088;BME280;49173;43.164;27.786;2023-04-26T01:31:46;99487.69;;;12.25;90.27
63088;BME280;49173;43.164;27.786;2023-04-26T01:34:13;99478.28;;;12.19;90.29
63088;BME280;49173;43.164;27.786;2023-04-26T01:36:39;99482.69;;;12.20;90.64
63088;BME280;49173;43.164;27.786;2023-04-26T01:39:05;99481.94;;;12.18;90.46
63088;BME280;49173;43.164;27.786;2023-04-26T01:41:32;99485.72;;;12.16;90.03
63088;BME280;49173;43.164;27.786;2023-04-26T01:43:58;99489.38;;;12.15;89.96
63088;BME280;49173;43.164;27.786;2023-04-26T01:46:24;99479.69;;;12.12;90.46
63088;BME280;49173;43.164;27.786;2023-04-26T01:48:50;99479.69;;;12.12;90.16
63088;BME280;49173;43.164;27.786;2023-04-26T01:51:16;99486.81;;;12.13;90.54
63088;BME280;49173;43.164;27.786;2023-04-26T01:53:41;99480.59;;;12.13;90.24
63088;BME280;49173;43.164;27.786;2023-04-26T01:56:07;99479.94;;;12.09;90.52
63088;BME280;49173;43.164;27.786;2023-04-26T01:58:33;99482.97;;;12.04;90.95
63088;BME280;49173;43.164;27.786;2023-04-26T02:01:06;99479.66;;;12.01;90.48
63088;BME280;49173;43.164;27.786;2023-04-26T02:03:33;99476.84;;;12.02;90.62
63088;BME280;49173;43.164;27.786;2023-04-26T02:05:59;99465.13;;;12.03;90.88
63088;BME280;49173;43.164;27.786;2023-04-26T02:08:24;99464.25;;;12.03;90.83
63088;BME280;49173;43.164;27.786;2023-04-26T02:10:50;99474.16;;;12.02;90.72
63088;BME280;49173;43.164;27.786;2023-04-26T02:13:16;99477.72;;;12.03;90.99
63088;BME280;49173;43.164;27.786;2023-04-26T02:15:45;99480.53;;;12.01;90.88
63088;BME280;49173;43.164;27.786;2023-04-26T02:18:12;99473.56;;;11.99;90.50
63088;BME280;49173;43.164;27.786;2023-04-26T02:20:41;99477.31;;;11.96;90.68
63088;BME280;49173;43.164;27.786;2023-04-26T02:23:11;99480.13;;;11.95;90.75
63088;BME280;49173;43.164;27.786;2023-04-26T02:25:37;99482.06;;;11.93;90.47
63088;BME280;49173;43.164;27.786;2023-04-26T02:28:03;99472.31;;;11.92;90.83
63088;BME280;49173;43.164;27.786;2023-04-26T02:30:29;99472.31;;;11.92;91.35
63088;BME280;49173;43.164;27.786;2023-04-26T02:32:56;99477.69;;;11.92;91.18
63088;BME280;49173;43.164;27.786;2023-04-26T02:35:23;99484.97;;;11.90;90.95
63088;BME280;49173;43.164;27.786;2023-04-26T02:37:49;99481.56;;;11.88;91.11
63088;BME280;49173;43.164;27.786;2023-04-26T02:40:19;99482.53;;;11.87;91.15
63088;BME280;49173;43.164;27.786;2023-04-26T02:42:46;99479.09;;;11.85;90.87
63088;BME280;49173;43.164;27.786;2023-04-26T02:45:12;99481.88;;;11.83;90.81
63088;BME280;49173;43.164;27.786;2023-04-26T02:47:38;99482.00;;;11.81;91.06
63088;BME280;49173;43.164;27.786;2023-04-26T02:50:05;99483.06;;;11.79;90.93
63088;BME280;49173;43.164;27.786;2023-04-26T02:52:35;99473.38;;;11.76;91.15
63088;BME280;49173;43.164;27.786;2023-04-26T02:55:02;99475.44;;;11.73;91.62
63088;BME280;49173;43.164;27.786;2023-04-26T02:57:28;99473.84;;;11.70;91.67
63088;BME280;49173;43.164;27.786;2023-04-26T02:59:54;99479.25;;;11.70;92.14
63088;BME280;49173;43.164;27.786;2023-04-26T03:02:20;99470.41;;;11.68;91.81
63088;BME280;49173;43.164;27.786;2023-04-26T03:04:46;99464.28;;;11.66;91.96
63088;BME280;49173;43.164;27.786;2023-04-26T03:07:12;99466.88;;;11.68;92.38
63088;BME280;49173;43.164;27.786;2023-04-26T03:09:38;99462.59;;;11.65;92.81
63088;BME280;49173;43.164;27.786;2023-04-26T03:12:08;99462.59;;;11.65;92.96
63088;BME280;49173;43.164;27.786;2023-04-26T03:14:34;99473.22;;;11.67;92.61
63088;BME280;49173;43.164;27.786;2023-04-26T03:17:00;99463.75;;;11.61;92.72
63088;BME280;49173;43.164;27.786;2023-04-26T03:19:27;99463.66;;;11.63;92.85
63088;BME280;49173;43.164;27.786;2023-04-26T03:21:54;99468.81;;;11.66;93.28
63088;BME280;49173;43.164;27.786;2023-04-26T03:24:20;99468.06;;;11.64;93.66
63088;BME280;49173;43.164;27.786;2023-04-26T03:26:46;99468.94;;;11.64;93.99
63088;BME280;49173;43.164;27.786;2023-04-26T03:29:11;99479.69;;;11.64;93.87
63088;BME280;49173;43.164;27.786;2023-04-26T03:31:37;99476.13;;;11.64;93.97
63088;BME280;49173;43.164;27.786;2023-04-26T03:34:04;99476.75;;;11.67;93.85
63088;BME280;49173;43.164;27.786;2023-04-26T03:36:30;99475.03;;;11.66;94.13
63088;BME280;49173;43.164;27.786;2023-04-26T03:38:56;99474.81;;;11.69;93.89
63088;BME280;49173;43.164;27.786;2023-04-26T03:41:22;99473.63;;;11.73;93.55
63088;BME280;49173;43.164;27.786;2023-04-26T03:43:48;99478.03;;;11.74;93.13
63088;BME280;49173;43.164;27.786;2023-04-26T03:46:14;99476.06;;;11.76;93.55
63088;BME280;49173;43.164;27.786;2023-04-26T03:48:40;99471.56;;;11.77;92.95
63088;BME280;49173;43.164;27.786;2023-04-26T03:51:06;99479.66;;;11.77;93.22
63088;BME280;49173;43.164;27.786;2023-04-26T03:53:32;99468.97;;;11.75;93.37
63088;BME280;49173;43.164;27.786;2023-04-26T03:55:58;99474.34;;;11.75;93.87
63088;BME280;49173;43.164;27.786;2023-04-26T03:58:24;99479.00;;;11.73;94.43
63088;BME280;49173;43.164;27.786;2023-04-26T04:00:51;99482.41;;;11.75;95.03
63088;BME280;49173;43.164;27.786;2023-04-26T04:03:17;99485.03;;;11.77;94.90
63088;BME280;49173;43.164;27.786;2023-04-26T04:05:43;99483.91;;;11.79;94.53
63088;BME280;49173;43.164;27.786;2023-04-26T04:08:09;99480.16;;;11.82;94.85
63088;BME280;49173;43.164;27.786;2023-04-26T04:10:35;99480.94;;;11.84;94.80
63088;BME280;49173;43.164;27.786;2023-04-26T04:13:02;99492.31;;;11.88;94.56
63088;BME280;49173;43.164;27.786;2023-04-26T04:15:28;99484.38;;;11.86;94.85
63088;BME280;49173;43.164;27.786;2023-04-26T04:17:54;99492.44;;;11.86;95.06
63088;BME280;49173;43.164;27.786;2023-04-26T04:20:20;99494.75;;;11.91;94.59
63088;BME280;49173;43.164;27.786;2023-04-26T04:22:46;99484.88;;;11.91;94.64
63088;BME280;49173;43.164;27.786;2023-04-26T04:25:12;99494.31;;;11.97;94.47
63088;BME280;49173;43.164;27.786;2023-04-26T04:27:39;99497.00;;;11.97;94.61
63088;BME280;49173;43.164;27.786;2023-04-26T04:30:07;99499.47;;;12.00;94.92
63088;BME280;49173;43.164;27.786;2023-04-26T04:32:34;99492.88;;;12.04;95.30
63088;BME280;49173;43.164;27.786;2023-04-26T04:35:01;99496.94;;;12.09;95.43
63088;BME280;49173;43.164;27.786;2023-04-26T04:37:27;99492.19;;;12.13;96.05
63088;BME280;49173;43.164;27.786;2023-04-26T04:39:58;99500.75;;;12.18;96.19
63088;BME280;49173;43.164;27.786;2023-04-26T04:42:24;99503.13;;;12.23;96.39
63088;BME280;49173;43.164;27.786;2023-04-26T04:44:55;99491.78;;;12.30;96.47
63088;BME280;49173;43.164;27.786;2023-04-26T04:47:21;99494.47;;;12.30;96.58
63088;BME280;49173;43.164;27.786;2023-04-26T04:49:47;99495.94;;;12.34;96.59
63088;BME280;49173;43.164;27.786;2023-04-26T04:52:15;99495.19;;;12.32;96.50
63088;BME280;49173;43.164;27.786;2023-04-26T04:54:44;99500.47;;;12.34;96.54
63088;BME280;49173;43.164;27.786;2023-04-26T04:57:15;99497.41;;;12.38;96.68
63088;BME280;49173;43.164;27.786;2023-04-26T04:59:42;99507.84;;;12.43;97.03
63088;BME280;49173;43.164;27.786;2023-04-26T05:02:09;99502.97;;;12.48;97.10
63088;BME280;49173;43.164;27.786;2023-04-26T05:04:37;99506.91;;;12.55;97.35
63088;BME280;49173;43.164;27.786;2023-04-26T05:07:04;99504.59;;;12.62;96.84
63088;BME280;49173;43.164;27.786;2023-04-26T05:09:31;99507.78;;;12.67;96.77
63088;BME280;49173;43.164;27.786;2023-04-26T05:12:00;99504.00;;;12.70;96.78
63088;BME280;49173;43.164;27.786;2023-04-26T05:14:32;99500.22;;;12.72;96.43
63088;BME280;49173;43.164;27.786;2023-04-26T05:17:01;99502.66;;;12.75;96.40
63088;BME280;49173;43.164;27.786;2023-04-26T05:19:27;99509.66;;;12.78;96.77
63088;BME280;49173;43.164;27.786;2023-04-26T05:21:55;99503.16;;;12.80;97.13
63088;BME280;49173;43.164;27.786;2023-04-26T05:24:22;99511.03;;;12.83;97.56
63088;BME280;49173;43.164;27.786;2023-04-26T05:26:59;99507.22;;;12.86;97.49
63088;BME280;49173;43.164;27.786;2023-04-26T05:29:29;99508.06;;;12.86;96.97
63088;BME280;49173;43.164;27.786;2023-04-26T05:31:56;99517.84;;;12.87;97.54
63088;BME280;49173;43.164;27.786;2023-04-26T05:34:23;99516.88;;;12.88;97.66
63088;BME280;49173;43.164;27.786;2023-04-26T05:36:52;99515.16;;;12.87;97.78
63088;BME280;49173;43.164;27.786;2023-04-26T05:39:19;99519.56;;;12.88;98.06
63088;BME280;49173;43.164;27.786;2023-04-26T05:41:46;99523.03;;;12.90;98.05
63088;BME280;49173;43.164;27.786;2023-04-26T05:44:13;99509.31;;;12.93;98.18
63088;BME280;49173;43.164;27.786;2023-04-26T05:46:41;99512.72;;;12.96;98.09
63088;BME280;49173;43.164;27.786;2023-04-26T05:49:08;99523.75;;;12.92;98.15
63088;BME280;49173;43.164;27.786;2023-04-26T05:51:35;99520.81;;;12.96;98.82
63088;BME280;49173;43.164;27.786;2023-04-26T05:54:04;99532.34;;;12.98;98.43
63088;BME280;49173;43.164;27.786;2023-04-26T05:56:31;99535.03;;;12.98;98.10
63088;BME280;49173;43.164;27.786;2023-04-26T05:58:57;99532.09;;;13.01;98.23
63088;BME280;49173;43.164;27.786;2023-04-26T06:01:24;99538.13;;;13.04;98.36
63088;BME280;49173;43.164;27.786;2023-04-26T06:03:53;99536.50;;;13.02;98.22
63088;BME280;49173;43.164;27.786;2023-04-26T06:06:24;99539.94;;;13.04;98.57
63088;BME280;49173;43.164;27.786;2023-04-26T06:08:51;99539.94;;;13.04;97.92
63088;BME280;49173;43.164;27.786;2023-04-26T06:11:21;99545.34;;;13.04;97.20
63088;BME280;49173;43.164;27.786;2023-04-26T06:13:49;99541.75;;;13.03;97.45
63088;BME280;49173;43.164;27.786;2023-04-26T06:16:17;99543.50;;;13.04;97.78
63088;BME280;49173;43.164;27.786;2023-04-26T06:18:43;99547.78;;;13.07;98.11
63088;BME280;49173;43.164;27.786;2023-04-26T06:21:13;99551.19;;;13.09;98.33
63088;BME280;49173;43.164;27.786;2023-04-26T06:23:39;99549.34;;;13.09;98.46
63088;BME280;49173;43.164;27.786;2023-04-26T06:26:06;99534.91;;;13.10;98.78
63088;BME280;49173;43.164;27.786;2023-04-26T06:28:32;99544.47;;;13.14;99.08
63088;BME280;49173;43.164;27.786;2023-04-26T06:31:02;99539.72;;;13.18;98.88
63088;BME280;49173;43.164;27.786;2023-04-26T06:33:32;99543.19;;;13.20;99.05
63088;BME280;49173;43.164;27.786;2023-04-26T06:35:58;99543.78;;;13.24;98.77
63088;BME280;49173;43.164;27.786;2023-04-26T06:38:26;99543.69;;;13.25;99.03
63088;BME280;49173;43.164;27.786;2023-04-26T06:40:53;99551.50;;;13.28;99.17
63088;BME280;49173;43.164;27.786;2023-04-26T06:43:20;99543.16;;;13.31;99.49
63088;BME280;49173;43.164;27.786;2023-04-26T06:45:47;99549.31;;;13.33;99.51
63088;BME280;49173;43.164;27.786;2023-04-26T06:48:21;99553.94;;;13.31;99.23
63088;BME280;49173;43.164;27.786;2023-04-26T06:50:47;99554.69;;;13.33;98.87
63088;BME280;49173;43.164;27.786;2023-04-26T06:53:13;99558.00;;;13.37;98.82
63088;BME280;49173;43.164;27.786;2023-04-26T06:55:40;99554.81;;;13.43;99.37
63088;BME280;49173;43.164;27.786;2023-04-26T06:58:06;99554.34;;;13.49;99.03
63088;BME280;49173;43.164;27.786;2023-04-26T07:00:32;99555.69;;;13.55;98.46
63088;BME280;49173;43.164;27.786;2023-04-26T07:03:00;99554.44;;;13.59;98.62
63088;BME280;49173;43.164;27.786;2023-04-26T07:05:27;99564.16;;;13.61;97.74
63088;BME280;49173;43.164;27.786;2023-04-26T07:07:54;99564.88;;;13.63;97.70
63088;BME280;49173;43.164;27.786;2023-04-26T07:10:20;99555.66;;;13.66;96.67
63088;BME280;49173;43.164;27.786;2023-04-26T07:12:46;99558.13;;;13.69;96.36
63088;BME280;49173;43.164;27.786;2023-04-26T07:15:19;99560.34;;;13.75;96.46
63088;BME280;49173;43.164;27.786;2023-04-26T07:17:45;99567.31;;;13.78;96.29
63088;BME280;49173;43.164;27.786;2023-04-26T07:20:15;99565.34;;;13.80;96.47
63088;BME280;49173;43.164;27.786;2023-04-26T07:22:46;99566.94;;;13.82;95.88
63088;BME280;49173;43.164;27.786;2023-04-26T07:25:16;99558.59;;;13.85;95.61
63088;BME280;49173;43.164;27.786;2023-04-26T07:27:43;99561.78;;;13.90;95.05
63088;BME280;49173;43.164;27.786;2023-04-26T07:30:10;99563.84;;;13.98;94.71
63088;BME280;49173;43.164;27.786;2023-04-26T07:32:40;99562.38;;;14.05;95.23
63088;BME280;49173;43.164;27.786;2023-04-26T07:35:09;99562.94;;;14.09;94.62
63088;BME280;49173;43.164;27.786;2023-04-26T07:37:45;99559.88;;;14.13;94.01
63088;BME280;49173;43.164;27.786;2023-04-26T07:40:12;99555.56;;;14.22;94.38
63088;BME280;49173;43.164;27.786;2023-04-26T07:42:38;99559.94;;;14.34;94.63
63088;BME280;49173;43.164;27.786;2023-04-26T07:45:06;99550.22;;;14.43;94.11
63088;BME280;49173;43.164;27.786;2023-04-26T07:47:33;99557.47;;;14.53;93.49
63088;BME280;49173;43.164;27.786;2023-04-26T07:50:03;99554.69;;;14.65;93.73
63088;BME280;49173;43.164;27.786;2023-04-26T07:52:30;99557.94;;;14.79;93.75
63088;BME280;49173;43.164;27.786;2023-04-26T07:54:58;99558.88;;;14.90;92.96
63088;BME280;49173;43.164;27.786;2023-04-26T07:57:24;99563.63;;;14.97;92.21
63088;BME280;49173;43.164;27.786;2023-04-26T07:59:52;99560.09;;;15.06;91.31
63088;BME280;49173;43.164;27.786;2023-04-26T08:02:19;99567.56;;;15.14;89.07
63088;BME280;49173;43.164;27.786;2023-04-26T08:04:52;99566.78;;;15.23;88.62
63088;BME280;49173;43.164;27.786;2023-04-26T08:07:20;99553.44;;;15.31;87.88
63088;BME280;49173;43.164;27.786;2023-04-26T08:09:48;99551.31;;;15.35;86.89
63088;BME280;49173;43.164;27.786;2023-04-26T08:12:15;99561.72;;;15.39;85.84
63088;BME280;49173;43.164;27.786;2023-04-26T08:14:42;99557.78;;;15.44;85.21
63088;BME280;49173;43.164;27.786;2023-04-26T08:17:11;99555.50;;;15.49;85.14
63088;BME280;49173;43.164;27.786;2023-04-26T08:19:37;99550.69;;;15.52;85.09
63088;BME280;49173;43.164;27.786;2023-04-26T08:22:05;99555.81;;;15.55;85.29
63088;BME280;49173;43.164;27.786;2023-04-26T08:24:32;99551.88;;;15.59;83.99
63088;BME280;49173;43.164;27.786;2023-04-26T08:27:01;99550.50;;;15.65;84.36
63088;BME280;49173;43.164;27.786;2023-04-26T08:29:29;99551.47;;;15.64;82.53
63088;BME280;49173;43.164;27.786;2023-04-26T08:31:57;99544.22;;;15.64;81.91
63088;BME280;49173;43.164;27.786;2023-04-26T08:34:24;99541.38;;;15.66;80.98
63088;BME280;49173;43.164;27.786;2023-04-26T08:36:56;99543.66;;;15.71;81.29
63088;BME280;49173;43.164;27.786;2023-04-26T08:39:23;99542.69;;;15.72;80.99
63088;BME280;49173;43.164;27.786;2023-04-26T08:41:52;99547.69;;;15.76;81.54
63088;BME280;49173;43.164;27.786;2023-04-26T08:44:23;99542.84;;;15.80;81.54
63088;BME280;49173;43.164;27.786;2023-04-26T08:47:03;99545.69;;;15.78;80.27
63088;BME280;49173;43.164;27.786;2023-04-26T08:49:41;99541.16;;;15.79;79.80
63088;BME280;49173;43.164;27.786;2023-04-26T08:52:11;99538.88;;;15.84;80.42
63088;BME280;49173;43.164;27.786;2023-04-26T08:54:49;99539.72;;;15.84;79.78
63088;BME280;49173;43.164;27.786;2023-04-26T08:57:22;99547.72;;;15.86;80.34
63088;BME280;49173;43.164;27.786;2023-04-26T08:59:50;99546.97;;;15.84;80.83
63088;BME280;49173;43.164;27.786;2023-04-26T09:02:25;99548.53;;;15.77;80.14
63088;BME280;49173;43.164;27.786;2023-04-26T09:04:54;99550.66;;;15.73;81.46
63088;BME280;49173;43.164;27.786;2023-04-26T09:07:31;99554.09;;;15.75;82.14
63088;BME280;49173;43.164;27.786;2023-04-26T09:10:03;99545.13;;;15.75;82.17
63088;BME280;49173;43.164;27.786;2023-04-26T09:12:33;99551.38;;;15.75;80.77
63088;BME280;49173;43.164;27.786;2023-04-26T09:15:06;99547.09;;;15.73;79.78
63088;BME280;49173;43.164;27.786;2023-04-26T09:17:37;99547.81;;;15.75;79.82
63088;BME280;49173;43.164;27.786;2023-04-26T09:20:22;99550.66;;;15.73;80.25
63088;BME280;49173;43.164;27.786;2023-04-26T09:22:51;99546.97;;;15.74;81.59
63088;BME280;49173;43.164;27.786;2023-04-26T09:25:28;99555.94;;;15.75;81.61
63088;BME280;49173;43.164;27.786;2023-04-26T09:27:58;99546.25;;;15.72;82.10
63088;BME280;49173;43.164;27.786;2023-04-26T09:30:36;99551.34;;;15.65;80.61
63088;BME280;49173;43.164;27.786;2023-04-26T09:33:04;99553.81;;;15.57;79.02
63088;BME280;49173;43.164;27.786;2023-04-26T09:35:32;99539.88;;;15.52;78.67
63088;BME280;49173;43.164;27.786;2023-04-26T09:38:05;99541.59;;;15.53;79.76
63088;BME280;49173;43.164;27.786;2023-04-26T09:40:34;99556.66;;;15.56;81.16
63088;BME280;49173;43.164;27.786;2023-04-26T09:45:48;99551.13;;;15.57;81.41
63088;BME280;49173;43.164;27.786;2023-04-26T09:48:21;99547.56;;;15.57;80.88
63088;BME280;49173;43.164;27.786;2023-04-26T09:50:53;99542.91;;;15.59;80.99
63088;BME280;49173;43.164;27.786;2023-04-26T09:53:47;99535.50;;;15.61;80.01
63088;BME280;49173;43.164;27.786;2023-04-26T09:56:16;99546.94;;;15.64;79.60
63088;BME280;49173;43.164;27.786;2023-04-26T09:58:57;99542.25;;;15.67;78.75
63088;BME280;49173;43.164;27.786;2023-04-26T10:01:29;99543.94;;;15.68;78.15
63088;BME280;49173;43.164;27.786;2023-04-26T10:03:56;99549.81;;;15.73;77.64
63088;BME280;49173;43.164;27.786;2023-04-26T10:06:24;99536.84;;;15.76;77.63
63088;BME280;49173;43.164;27.786;2023-04-26T10:08:53;99539.59;;;15.86;78.40
63088;BME280;49173;43.164;27.786;2023-04-26T10:11:20;99543.19;;;15.96;77.36
63088;BME280;49173;43.164;27.786;2023-04-26T10:13:52;99530.94;;;16.02;78.13
63088;BME280;49173;43.164;27.786;2023-04-26T10:16:20;99532.97;;;16.09;77.51
63088;BME280;49173;43.164;27.786;2023-04-26T10:18:46;99525.13;;;16.16;76.08
63088;BME280;49173;43.164;27.786;2023-04-26T10:21:27;99533.41;;;16.24;77.03
63088;BME280;49173;43.164;27.786;2023-04-26T10:23:58;99532.69;;;16.32;77.53
63088;BME280;49173;43.164;27.786;2023-04-26T10:26:53;99527.72;;;16.37;76.87
63088;BME280;49173;43.164;27.786;2023-04-26T10:29:24;99533.28;;;16.45;76.99
63088;BME280;49173;43.164;27.786;2023-04-26T10:34:31;99529.25;;;16.68;76.08
63088;BME280;49173;43.164;27.786;2023-04-26T10:39:34;99524.44;;;16.82;76.72
63088;BME280;49173;43.164;27.786;2023-04-26T10:42:39;99522.97;;;16.97;75.52
63088;BME280;49173;43.164;27.786;2023-04-26T10:45:27;99514.28;;;17.13;75.19
63088;BME280;49173;43.164;27.786;2023-04-26T11:01:34;99521.00;;;17.83;71.17
63088;BME280;49173;43.164;27.786;2023-04-26T11:04:09;99522.72;;;17.84;70.90
63088;BME280;49173;43.164;27.786;2023-04-26T11:06:55;99519.84;;;17.86;70.17
63088;BME280;49173;43.164;27.786;2023-04-26T11:12:13;99513.00;;;17.81;70.97
63088;BME280;49173;43.164;27.786;2023-04-26T11:14:47;99519.03;;;17.75;70.05
63088;BME280;49173;43.164;27.786;2023-04-26T11:17:36;99517.31;;;17.74;68.66
63088;BME280;49173;43.164;27.786;2023-04-26T11:20:15;99526.19;;;17.76;68.23
63088;BME280;49173;43.164;27.786;2023-04-26T11:22:41;99521.28;;;17.80;68.45
63088;BME280;49173;43.164;27.786;2023-04-26T11:25:08;99519.28;;;17.82;67.19
63088;BME280;49173;43.164;27.786;2023-04-26T11:27:37;99521.72;;;17.75;63.55
63088;BME280;49173;43.164;27.786;2023-04-26T11:30:04;99511.03;;;17.74;64.45
63088;BME280;49173;43.164;27.786;2023-04-26T11:32:36;99512.19;;;17.71;64.80
63088;BME280;49173;43.164;27.786;2023-04-26T11:35:02;99509.34;;;17.73;65.36
63088;BME280;49173;43.164;27.786;2023-04-26T11:37:29;99512.19;;;17.62;62.72
63088;BME280;49173;43.164;27.786;2023-04-26T11:39:59;99503.94;;;17.63;64.33
63088;BME280;49173;43.164;27.786;2023-04-26T11:42:26;99510.38;;;17.62;64.94
63088;BME280;49173;43.164;27.786;2023-04-26T11:44:57;99518.34;;;17.64;65.23
63088;BME280;49173;43.164;27.786;2023-04-26T11:47:24;99508.19;;;17.66;65.70
63088;BME280;49173;43.164;27.786;2023-04-26T11:49:51;99517.03;;;17.68;64.92
63088;BME280;49173;43.164;27.786;2023-04-26T11:52:19;99509.63;;;17.60;63.57
63088;BME280;49173;43.164;27.786;2023-04-26T11:55:06;99512.94;;;17.64;62.92
63088;BME280;49173;43.164;27.786;2023-04-26T11:57:34;99505.81;;;17.53;60.25
63088;BME280;49173;43.164;27.786;2023-04-26T12:00:13;99510.66;;;17.59;62.94
63088;BME280;49173;43.164;27.786;2023-04-26T12:02:43;99515.16;;;17.68;64.75
63088;BME280;49173;43.164;27.786;2023-04-26T12:05:23;99508.31;;;17.74;64.04
63088;BME280;49173;43.164;27.786;2023-04-26T12:07:51;99510.44;;;17.80;62.32
63088;BME280;49173;43.164;27.786;2023-04-26T12:10:38;99512.72;;;17.84;62.88
63088;BME280;49173;43.164;27.786;2023-04-26T12:13:05;99512.53;;;17.86;63.18
63088;BME280;49173;43.164;27.786;2023-04-26T12:15:34;99504.56;;;17.84;61.76
63088;BME280;49173;43.164;27.786;2023-04-26T12:20:36;99507.28;;;17.84;62.16
63088;BME280;49173;43.164;27.786;2023-04-26T12:23:08;99510.00;;;17.84;61.85
63088;BME280;49173;43.164;27.786;2023-04-26T12:25:39;99509.13;;;17.84;60.75
63088;BME280;49173;43.164;27.786;2023-04-26T12:28:10;99502.44;;;17.78;57.14
63088;BME280;49173;43.164;27.786;2023-04-26T12:30:39;99500.75;;;17.77;56.86
63088;BME280;49173;43.164;27.786;2023-04-26T12:33:07;99491.75;;;17.77;56.53
63088;BME280;49173;43.164;27.786;2023-04-26T12:35:35;99493.22;;;17.71;55.14
63088;BME280;49173;43.164;27.786;2023-04-26T12:38:02;99490.63;;;17.70;55.01
63088;BME280;49173;43.164;27.786;2023-04-26T12:40:29;99489.63;;;17.71;55.74
63088;BME280;49173;43.164;27.786;2023-04-26T12:42:57;99494.19;;;17.70;53.91
63088;BME280;49173;43.164;27.786;2023-04-26T12:45:24;99494.75;;;17.74;54.84
63088;BME280;49173;43.164;27.786;2023-04-26T12:47:55;99495.59;;;17.74;53.80
63088;BME280;49173;43.164;27.786;2023-04-26T12:50:24;99482.59;;;17.78;53.59
63088;BME280;49173;43.164;27.786;2023-04-26T12:52:53;99486.09;;;17.88;54.06
63088;BME280;49173;43.164;27.786;2023-04-26T12:55:23;99483.19;;;17.99;55.24
63088;BME280;49173;43.164;27.786;2023-04-26T12:57:53;99476.66;;;18.10;56.09
63088;BME280;49173;43.164;27.786;2023-04-26T13:00:19;99471.94;;;18.12;54.08
63088;BME280;49173;43.164;27.786;2023-04-26T13:02:48;99462.22;;;18.09;52.67
63088;BME280;49173;43.164;27.786;2023-04-26T13:05:16;99467.66;;;18.09;52.18
63088;BME280;49173;43.164;27.786;2023-04-26T13:07:44;99469.22;;;18.12;51.69
63088;BME280;49173;43.164;27.786;2023-04-26T13:10:11;99459.06;;;18.14;50.79
63088;BME280;49173;43.164;27.786;2023-04-26T13:12:38;99444.78;;;18.12;50.91
63088;BME280;49173;43.164;27.786;2023-04-26T13:15:10;99450.22;;;18.12;50.53
63088;BME280;49173;43.164;27.786;2023-04-26T13:17:36;99451.38;;;18.09;50.14
63088;BME280;49173;43.164;27.786;2023-04-26T13:20:04;99454.47;;;18.15;52.74
63088;BME280;49173;43.164;27.786;2023-04-26T13:22:32;99455.00;;;18.18;59.52
63088;BME280;49173;43.164;27.786;2023-04-26T13:25:05;99463.63;;;18.14;62.99